createdAt,value
2023-01-06T00:01:34.803Z,98317.78
2023-01-06T00:04:03.455Z,98314.28
2023-01-06T00:06:31.792Z,98322.25
2023-01-06T00:09:05.143Z,98332.09
2023-01-06T00:11:33.333Z,98338.72
2023-01-06T00:14:01.441Z,98350.69
2023-01-06T00:16:28.830Z,98361.50
2023-01-06T00:18:59.336Z,98360.72
2023-01-06T00:21:28.245Z,98365.22
2023-01-06T00:23:56.218Z,98364.31
2023-01-06T00:26:24.338Z,98360.47
2023-01-06T00:28:56.887Z,98384.91
2023-01-06T00:31:24.261Z,98385.66
2023-01-06T00:33:52.201Z,98381.25
2023-01-06T00:36:21.755Z,98385.25
2023-01-06T00:38:51.269Z,98388.50
2023-01-06T00:41:38.992Z,98399.25
2023-01-06T00:44:07.173Z,98387.50
2023-01-06T00:46:35.019Z,98396.94
2023-01-06T00:49:06.239Z,98395.00
2023-01-06T00:51:37.436Z,98401.44
2023-01-06T00:54:09.904Z,98409.81
2023-01-06T00:56:43.589Z,98412.16
2023-01-06T00:59:14.905Z,98405.16
2023-01-06T01:01:44.116Z,98413.81
2023-01-06T01:04:12.981Z,98409.81
2023-01-06T01:06:44.066Z,98405.63
2023-01-06T01:09:18.495Z,98419.25
2023-01-06T01:12:04.596Z,98428.69
2023-01-06T01:14:32.553Z,98427.94
2023-01-06T01:16:59.839Z,98424.59
2023-01-06T01:19:28.476Z,98430.47
2023-01-06T01:21:55.903Z,98438.63
2023-01-06T01:24:23.783Z,98437.72
2023-01-06T01:26:51.332Z,98446.47
2023-01-06T01:29:20.395Z,98440.06
2023-01-06T01:31:48.040Z,98440.66
2023-01-06T01:34:18.313Z,98448.47
2023-01-06T01:36:48.734Z,98452.31
2023-01-06T01:39:19.353Z,98453.41
2023-01-06T01:41:47.674Z,98450.41
2023-01-06T01:45:21.540Z,98451.84
2023-01-06T01:48:07.592Z,98454.16
2023-01-06T01:50:46.406Z,98460.25
2023-01-06T01:53:23.925Z,98458.50
2023-01-06T01:55:54.583Z,98464.66
2023-01-06T01:58:28.201Z,98463.75
2023-01-06T02:00:55.746Z,98472.06
2023-01-06T02:03:25.562Z,98464.09
2023-01-06T02:05:59.860Z,98472.66
2023-01-06T02:08:50.136Z,98476.38
2023-01-06T02:11:17.873Z,98472.06
2023-01-06T02:13:47.764Z,98485.22
2023-01-06T02:16:48.672Z,98481.75
2023-01-06T02:19:59.229Z,98485.47
2023-01-06T02:22:46.962Z,98487.22
2023-01-06T02:26:00.623Z,98487.13
2023-01-06T02:28:59.043Z,98485.59
2023-01-06T02:31:44.227Z,98491.22
2023-01-06T02:34:39.961Z,98493.63
2023-01-06T02:37:52.253Z,98500.63
2023-01-06T02:40:56.954Z,98493.81
2023-01-06T02:43:47.326Z,98491.72
2023-01-06T02:46:40.727Z,98500.09
2023-01-06T02:49:29.845Z,98498.53
2023-01-06T02:52:31.818Z,98501.25
2023-01-06T02:55:10.292Z,98492.84
2023-01-06T02:57:53.749Z,98506.31
2023-01-06T03:00:36.162Z,98506.09
2023-01-06T03:03:13.229Z,98499.94
2023-01-06T03:05:44.445Z,98504.44
2023-01-06T03:08:30.640Z,98492.38
2023-01-06T03:11:00.776Z,98496.34
2023-01-06T03:13:48.710Z,98496.34
2023-01-06T03:16:17.377Z,98502.22
2023-01-06T03:18:48.255Z,98504.97
2023-01-06T03:21:23.110Z,98504.59
2023-01-06T03:23:51.171Z,98501.38
2023-01-06T03:26:18.663Z,98493.41
2023-01-06T03:28:46.408Z,98500.22
2023-01-06T03:31:52.718Z,98508.03
2023-01-06T03:35:05.350Z,98502.09
2023-01-06T03:37:58.090Z,98503.59
2023-01-06T03:40:44.186Z,98506.72
2023-01-06T03:43:32.333Z,98498.59
2023-01-06T03:46:34.278Z,98508.09
2023-01-06T03:49:28.836Z,98508.69
2023-01-06T03:52:40.623Z,98519.13
2023-01-06T03:55:19.024Z,98515.78
2023-01-06T03:57:56.823Z,98508.41
2023-01-06T04:00:30.226Z,98508.25
2023-01-06T04:02:58.512Z,98510.75
2023-01-06T04:05:28.490Z,98512.50
2023-01-06T04:07:56.096Z,98506.56
2023-01-06T04:10:24.589Z,98511.81
2023-01-06T04:12:52.383Z,98513.97
2023-01-06T04:15:23.740Z,98516.69
2023-01-06T04:17:53.006Z,98507.25
2023-01-06T04:20:25.164Z,98507.84
2023-01-06T04:22:57.845Z,98505.16
2023-01-06T04:25:26.077Z,98502.44
2023-01-06T04:27:54.328Z,98503.09
2023-01-06T04:30:21.639Z,98502.19
2023-01-06T04:32:49.317Z,98512.66
2023-01-06T04:35:16.659Z,98509.69
2023-01-06T04:37:44.275Z,98518.91
2023-01-06T04:40:11.996Z,98526.66
2023-01-06T04:42:57.972Z,98524.09
2023-01-06T04:45:25.288Z,98531.00
2023-01-06T04:47:53.033Z,98521.69
2023-01-06T04:50:20.371Z,98534.44
2023-01-06T04:52:47.951Z,98537.03
2023-01-06T04:55:15.347Z,98535.09
2023-01-06T04:57:43.163Z,98532.81
2023-01-06T05:00:11.379Z,98535.28
2023-01-06T05:02:39.085Z,98543.88
2023-01-06T05:05:06.873Z,98537.81
2023-01-06T05:07:34.523Z,98533.28
2023-01-06T05:10:01.839Z,98535.81
2023-01-06T05:12:29.555Z,98538.47
2023-01-06T05:14:56.814Z,98538.72
2023-01-06T05:17:24.474Z,98544.03
2023-01-06T05:19:51.891Z,98549.97
2023-01-06T05:22:19.641Z,98558.41
2023-01-06T05:24:47.060Z,98557.88
2023-01-06T05:27:14.626Z,98556.56
2023-01-06T05:29:41.966Z,98557.47
2023-01-06T05:32:09.577Z,98557.13
2023-01-06T05:34:36.885Z,98565.88
2023-01-06T05:37:04.499Z,98557.03
2023-01-06T05:39:31.938Z,98564.25
2023-01-06T05:41:59.486Z,98563.56
2023-01-06T05:44:26.828Z,98560.81
2023-01-06T05:46:54.378Z,98569.44
2023-01-06T05:49:22.011Z,98565.94
2023-01-06T05:51:49.663Z,98558.09
2023-01-06T05:54:17.371Z,98555.88
2023-01-06T05:56:44.953Z,98559.19
2023-01-06T05:59:12.211Z,98569.34
2023-01-06T06:01:39.750Z,98576.16
2023-01-06T06:04:06.999Z,98579.59
2023-01-06T06:06:34.557Z,98576.88
2023-01-06T06:09:05.121Z,98579.78
2023-01-06T06:11:32.701Z,98577.84
2023-01-06T06:14:00.006Z,98572.78
2023-01-06T06:16:28.962Z,98572.13
2023-01-06T06:18:59.108Z,98570.03
2023-01-06T06:21:30.986Z,98570.13
2023-01-06T06:23:59.912Z,98569.31
2023-01-06T06:26:27.943Z,98582.78
2023-01-06T06:28:55.714Z,98569.50
2023-01-06T06:31:29.387Z,98581.44
2023-01-06T06:34:00.484Z,98585.75
2023-01-06T06:36:29.315Z,98577.22
2023-01-06T06:38:57.572Z,98581.00
2023-01-06T06:41:26.490Z,98580.34
2023-01-06T06:43:54.094Z,98573.72
2023-01-06T06:46:22.398Z,98579.38
2023-01-06T06:48:50.990Z,98578.56
2023-01-06T06:51:22.028Z,98582.25
2023-01-06T06:53:50.357Z,98581.28
2023-01-06T06:56:20.469Z,98579.19
2023-01-06T06:58:48.060Z,98590.47
2023-01-06T07:01:19.636Z,98588.06
2023-01-06T07:03:47.847Z,98591.72
2023-01-06T07:06:24.237Z,98594.00
2023-01-06T07:08:51.998Z,98600.16
2023-01-06T07:11:20.782Z,98594.53
2023-01-06T07:13:48.109Z,98594.22
2023-01-06T07:16:16.289Z,98590.91
2023-01-06T07:18:44.019Z,98599.16
2023-01-06T07:21:11.781Z,98601.69
2023-01-06T07:23:39.392Z,98607.78
2023-01-06T07:26:07.070Z,98615.47
2023-01-06T07:28:34.375Z,98612.03
2023-01-06T07:31:02.362Z,98628.47
2023-01-06T07:33:29.994Z,98627.22
2023-01-06T07:35:58.185Z,98630.09
2023-01-06T07:38:26.104Z,98635.41
2023-01-06T07:40:59.312Z,98636.19
2023-01-06T07:43:26.754Z,98635.72
2023-01-06T07:45:54.394Z,98640.78
2023-01-06T07:48:21.778Z,98636.44
2023-01-06T07:50:49.665Z,98632.78
2023-01-06T07:53:17.372Z,98646.38
2023-01-06T07:55:52.798Z,98639.50
2023-01-06T07:58:21.203Z,98641.66
2023-01-06T08:00:48.838Z,98648.59
2023-01-06T08:03:16.374Z,98647.13
2023-01-06T08:05:44.521Z,98643.56
2023-01-06T08:08:12.749Z,98634.47
2023-01-06T08:10:44.058Z,98640.13
2023-01-06T08:13:11.818Z,98646.94
2023-01-06T08:15:40.672Z,98646.59
2023-01-06T08:18:08.707Z,98651.75
2023-01-06T08:20:36.552Z,98652.91
2023-01-06T08:23:03.895Z,98652.22
2023-01-06T08:25:31.787Z,98656.03
2023-01-06T08:28:02.573Z,98655.28
2023-01-06T08:30:30.434Z,98653.75
2023-01-06T08:32:59.376Z,98659.38
2023-01-06T08:35:27.720Z,98659.84
2023-01-06T08:37:55.115Z,98656.59
2023-01-06T08:40:22.868Z,98648.84
2023-01-06T08:42:50.263Z,98639.63
2023-01-06T08:45:18.035Z,98646.25
2023-01-06T08:47:45.399Z,98644.91
2023-01-06T08:50:12.998Z,98652.06
2023-01-06T08:52:40.312Z,98646.50
2023-01-06T08:55:08.078Z,98647.41
2023-01-06T08:57:35.516Z,98647.03
2023-01-06T09:00:06.507Z,98644.69
2023-01-06T09:02:33.797Z,98645.78
2023-01-06T09:05:01.679Z,98644.41
2023-01-06T09:07:29.292Z,98641.34
2023-01-06T09:09:57.112Z,98637.16
2023-01-06T09:12:24.592Z,98639.88
2023-01-06T09:14:52.195Z,98646.69
2023-01-06T09:17:19.603Z,98648.09
2023-01-06T09:19:47.224Z,98649.88
2023-01-06T09:22:14.531Z,98647.38
2023-01-06T09:24:42.278Z,98642.50
2023-01-06T09:27:09.573Z,98641.69
2023-01-06T09:29:37.196Z,98621.69
2023-01-06T09:32:04.830Z,98628.47
2023-01-06T09:34:32.577Z,98629.06
2023-01-06T09:36:59.937Z,98633.16
2023-01-06T09:39:27.675Z,98630.25
2023-01-06T09:42:06.706Z,98628.09
2023-01-06T09:44:54.635Z,98625.63
2023-01-06T09:47:32.567Z,98620.78
2023-01-06T09:50:43.850Z,98613.13
2023-01-06T09:53:20.963Z,98608.78
2023-01-06T09:56:01.355Z,98606.22
2023-01-06T09:58:37.990Z,98600.91
2023-01-06T10:01:13.298Z,98595.78
2023-01-06T10:03:40.804Z,98597.31
2023-01-06T10:07:11.597Z,98597.00
2023-01-06T10:09:53.390Z,98589.19
2023-01-06T10:12:38.851Z,98579.84
2023-01-06T10:15:35.218Z,98568.50
2023-01-06T10:18:26.224Z,98578.97
2023-01-06T10:21:27.087Z,98577.47
2023-01-06T10:24:32.845Z,98564.03
2023-01-06T10:27:28.051Z,98552.75
2023-01-06T10:30:00.316Z,98530.94
2023-01-06T10:32:34.378Z,98526.78
2023-01-06T10:35:03.084Z,98523.94
2023-01-06T10:37:41.633Z,98515.78
2023-01-06T10:40:30.633Z,98524.31
2023-01-06T10:43:17.103Z,98526.16
2023-01-06T10:45:49.043Z,98518.25
2023-01-06T10:48:27.270Z,98517.78
2023-01-06T10:50:57.159Z,98514.50
2023-01-06T10:53:26.536Z,98511.56
2023-01-06T10:56:00.760Z,98513.47
2023-01-06T10:58:37.642Z,98507.44
2023-01-06T11:01:24.300Z,98513.56
2023-01-06T11:04:20.074Z,98495.03
2023-01-06T11:06:58.669Z,98502.25
2023-01-06T11:09:32.964Z,98505.19
2023-01-06T11:12:24.056Z,98495.84
2023-01-06T11:15:02.955Z,98499.13
2023-01-06T11:17:31.884Z,98496.84
2023-01-06T11:20:25.240Z,98494.13
2023-01-06T11:22:52.971Z,98494.16
2023-01-06T11:25:20.266Z,98483.53
2023-01-06T11:28:20.029Z,98482.97
2023-01-06T11:31:00.427Z,98487.53
2023-01-06T11:33:32.209Z,98488.91
2023-01-06T11:36:10.356Z,98495.25
2023-01-06T11:39:21.813Z,98496.69
2023-01-06T11:41:53.435Z,98498.97
2023-01-06T11:44:34.252Z,98489.34
2023-01-06T11:47:17.627Z,98485.94
2023-01-06T11:49:56.243Z,98474.41
2023-01-06T11:52:32.392Z,98467.88
2023-01-06T11:55:09.076Z,98461.97
2023-01-06T11:57:54.744Z,98456.56
2023-01-06T12:00:51.900Z,98435.31
2023-01-06T12:03:41.517Z,98421.78
2023-01-06T12:06:18.797Z,98421.16
2023-01-06T12:09:18.175Z,98438.00
2023-01-06T12:11:53.687Z,98443.06
2023-01-06T12:14:29.720Z,98452.88
2023-01-06T12:17:25.055Z,98456.81
2023-01-06T12:20:33.467Z,98455.09
2023-01-06T12:23:29.716Z,98454.28
2023-01-06T12:26:02.591Z,98453.41
2023-01-06T12:28:40.653Z,98453.28
2023-01-06T12:31:21.829Z,98445.94
2023-01-06T12:34:48.692Z,98446.97
2023-01-06T12:37:41.150Z,98440.03
2023-01-06T12:40:34.008Z,98439.38
2023-01-06T12:43:16.645Z,98436.78
2023-01-06T12:46:07.395Z,98426.84
2023-01-06T12:49:06.324Z,98402.81
2023-01-06T12:51:58.278Z,98394.50
2023-01-06T12:54:33.717Z,98394.38
2023-01-06T12:57:01.246Z,98392.66
2023-01-06T13:00:05.035Z,98401.75
2023-01-06T13:03:25.512Z,98405.66
2023-01-06T13:06:26.130Z,98394.88
2023-01-06T13:09:06.623Z,98402.66
2023-01-06T13:12:18.087Z,98376.78
2023-01-06T13:15:03.427Z,98385.00
2023-01-06T13:18:33.882Z,98383.22
2023-01-06T13:21:20.307Z,98382.53
2023-01-06T13:23:50.623Z,98364.06
2023-01-06T13:27:01.900Z,98366.84
2023-01-06T13:29:34.961Z,98370.25
2023-01-06T13:32:39.600Z,98363.25
2023-01-06T13:35:31.456Z,98353.19
2023-01-06T13:38:53.965Z,98348.38
2023-01-06T13:41:29.420Z,98355.44
2023-01-06T13:44:00.729Z,98351.78
2023-01-06T13:46:31.184Z,98358.53
2023-01-06T13:49:05.635Z,98350.97
2023-01-06T13:51:37.739Z,98342.41
2023-01-06T13:54:05.424Z,98342.34
2023-01-06T13:56:35.938Z,98331.59
2023-01-06T13:59:22.173Z,98335.84
2023-01-06T14:01:50.345Z,98326.66
2023-01-06T14:04:47.913Z,98324.69
2023-01-06T14:07:35.273Z,98315.59
2023-01-06T14:10:26.521Z,98318.66
2023-01-06T14:12:55.466Z,98323.16
2023-01-06T14:15:35.674Z,98334.91
2023-01-06T14:18:04.511Z,98332.84
2023-01-06T14:20:37.956Z,98344.19
2023-01-06T14:23:18.432Z,98336.53
2023-01-06T14:25:54.180Z,98331.50
2023-01-06T14:28:21.415Z,98333.59
2023-01-06T14:30:52.061Z,98335.69
2023-01-06T14:33:40.149Z,98340.16
2023-01-06T14:36:14.417Z,98319.44
2023-01-06T14:39:17.925Z,98313.47
2023-01-06T14:42:09.843Z,98317.19
2023-01-06T14:44:50.346Z,98321.78
2023-01-06T14:47:43.013Z,98316.53
2023-01-06T14:50:45.585Z,98320.06
2023-01-06T14:53:28.578Z,98313.09
2023-01-06T14:55:56.484Z,98312.31
2023-01-06T14:58:39.249Z,98314.69
2023-01-06T15:01:07.698Z,98308.13
2023-01-06T15:03:36.656Z,98305.63
2023-01-06T15:06:19.418Z,98305.22
2023-01-06T15:08:48.242Z,98300.72
2023-01-06T15:11:30.849Z,98305.34
2023-01-06T15:13:58.492Z,98301.69
2023-01-06T15:16:45.356Z,98297.06
2023-01-06T15:19:16.505Z,98299.06
2023-01-06T15:21:48.264Z,98299.78
2023-01-06T15:24:24.137Z,98293.56
2023-01-06T15:26:53.932Z,98280.78
2023-01-06T15:29:25.170Z,98277.91
2023-01-06T15:31:55.169Z,98284.47
2023-01-06T15:34:40.932Z,98301.94
2023-01-06T15:37:18.478Z,98301.63
2023-01-06T15:39:47.435Z,98296.88
2023-01-06T15:42:21.684Z,98288.31
2023-01-06T15:45:00.551Z,98280.53
2023-01-06T15:47:42.434Z,98280.09
2023-01-06T15:50:24.198Z,98276.06
2023-01-06T15:52:56.423Z,98279.44
2023-01-06T15:55:35.570Z,98278.53
2023-01-06T15:58:28.611Z,98273.47
2023-01-06T16:01:18.914Z,98267.19
2023-01-06T16:04:01.055Z,98266.78
2023-01-06T16:06:32.398Z,98264.59
2023-01-06T16:09:27.525Z,98264.84
2023-01-06T16:12:14.998Z,98273.00
2023-01-06T16:14:46.325Z,98267.19
2023-01-06T16:17:37.856Z,98264.78
2023-01-06T16:20:22.614Z,98261.91
2023-01-06T16:22:56.255Z,98264.19
2023-01-06T16:25:34.263Z,98267.28
2023-01-06T16:28:05.138Z,98269.06
2023-01-06T16:30:36.602Z,98269.22
2023-01-06T16:33:04.792Z,98269.56
2023-01-06T16:35:34.504Z,98269.13
2023-01-06T16:38:02.407Z,98267.56
2023-01-06T16:40:30.575Z,98265.28
2023-01-06T16:43:03.202Z,98264.03
2023-01-06T16:45:44.347Z,98268.53
2023-01-06T16:48:16.617Z,98268.53
2023-01-06T16:50:50.713Z,98257.41
2023-01-06T16:53:21.809Z,98254.47
2023-01-06T16:55:55.308Z,98253.88
2023-01-06T16:58:30.071Z,98249.09
2023-01-06T17:01:09.140Z,98249.25
2023-01-06T17:03:38.674Z,98255.22
2023-01-06T17:06:21.859Z,98240.22
2023-01-06T17:08:50.653Z,98248.56
2023-01-06T17:11:22.603Z,98244.84
2023-01-06T17:14:03.729Z,98249.25
2023-01-06T17:16:41.655Z,98255.31
2023-01-06T17:19:29.094Z,98255.22
2023-01-06T17:22:24.421Z,98255.63
2023-01-06T17:24:52.888Z,98265.34
2023-01-06T17:27:30.021Z,98267.94
2023-01-06T17:30:02.153Z,98256.59
2023-01-06T17:32:37.888Z,98273.41
2023-01-06T17:35:29.922Z,98273.75
2023-01-06T17:38:02.636Z,98283.44
2023-01-06T17:40:38.653Z,98273.13
2023-01-06T17:43:23.784Z,98266.69
2023-01-06T17:45:51.892Z,98266.50
2023-01-06T17:48:19.626Z,98249.72
2023-01-06T17:50:58.394Z,98254.19
2023-01-06T17:53:55.171Z,98258.88
2023-01-06T17:56:25.528Z,98251.00
2023-01-06T17:58:53.004Z,98249.97
2023-01-06T18:01:30.467Z,98241.00
2023-01-06T18:04:00.316Z,98243.19
2023-01-06T18:06:39.446Z,98238.66
2023-01-06T18:09:16.634Z,98239.31
2023-01-06T18:12:02.835Z,98252.75
2023-01-06T18:14:42.598Z,98253.03
2023-01-06T18:17:26.113Z,98245.78
2023-01-06T18:19:53.858Z,98246.19
2023-01-06T18:22:25.915Z,98254.28
2023-01-06T18:25:00.325Z,98259.72
2023-01-06T18:27:34.948Z,98261.31
2023-01-06T18:30:27.998Z,98251.41
2023-01-06T18:32:56.274Z,98253.94
2023-01-06T18:35:29.991Z,98257.97
2023-01-06T18:38:03.389Z,98250.84
2023-01-06T18:40:31.738Z,98242.53
2023-01-06T18:43:06.179Z,98257.19
2023-01-06T18:45:36.633Z,98259.91
2023-01-06T18:48:39.996Z,98261.91
2023-01-06T18:51:20.091Z,98260.78
2023-01-06T18:53:49.968Z,98260.78
2023-01-06T18:56:23.781Z,98264.50
2023-01-06T18:58:55.014Z,98265.44
2023-01-06T19:01:31.300Z,98264.22
2023-01-06T19:04:10.137Z,98262.31
2023-01-06T19:06:40.704Z,98257.94
2023-01-06T19:09:21.837Z,98258.28
2023-01-06T19:11:59.825Z,98268.03
2023-01-06T19:14:32.840Z,98254.41
2023-01-06T19:17:00.299Z,98264.47
2023-01-06T19:19:39.807Z,98263.53
2023-01-06T19:22:29.892Z,98272.34
2023-01-06T19:25:26.798Z,98268.66
2023-01-06T19:27:59.659Z,98275.13
2023-01-06T19:30:48.832Z,98274.88
2023-01-06T19:33:39.973Z,98283.09
2023-01-06T19:36:49.525Z,98284.47
2023-01-06T19:39:36.705Z,98285.59
2023-01-06T19:42:23.202Z,98280.94
2023-01-06T19:44:57.114Z,98287.69
2023-01-06T19:47:35.902Z,98291.28
2023-01-06T19:50:23.405Z,98283.94
2023-01-06T19:53:00.131Z,98284.06
2023-01-06T19:55:30.911Z,98288.66
2023-01-06T19:58:05.124Z,98299.47
2023-01-06T20:00:50.192Z,98289.75
2023-01-06T20:03:32.037Z,98294.75
2023-01-06T20:05:59.769Z,98296.81
2023-01-06T20:08:28.062Z,98302.91
2023-01-06T20:10:55.520Z,98298.94
2023-01-06T20:13:23.102Z,98300.16
2023-01-06T20:15:50.678Z,98313.72
2023-01-06T20:18:18.275Z,98307.88
2023-01-06T20:20:45.671Z,98313.72
2023-01-06T20:23:13.412Z,98311.91
2023-01-06T20:25:40.839Z,98305.81
2023-01-06T20:28:08.490Z,98314.03
2023-01-06T20:30:35.952Z,98318.69
2023-01-06T20:33:03.685Z,98322.66
2023-01-06T20:35:31.351Z,98322.31
2023-01-06T20:37:59.192Z,98333.78
2023-01-06T20:40:26.564Z,98320.81
2023-01-06T20:42:54.200Z,98330.28
2023-01-06T20:45:21.518Z,98328.41
2023-01-06T20:47:49.294Z,98332.50
2023-01-06T20:50:16.743Z,98331.31
2023-01-06T20:52:47.578Z,98337.66
2023-01-06T20:55:15.567Z,98324.00
2023-01-06T20:57:43.203Z,98327.88
2023-01-06T21:00:12.351Z,98341.53
2023-01-06T21:02:40.308Z,98333.19
2023-01-06T21:05:08.406Z,98337.34
2023-01-06T21:07:36.119Z,98346.09
2023-01-06T21:10:04.830Z,98343.69
2023-01-06T21:12:32.768Z,98341.13
2023-01-06T21:15:00.068Z,98329.63
2023-01-06T21:17:27.678Z,98334.84
2023-01-06T21:19:55.510Z,98343.16
2023-01-06T21:22:23.267Z,98349.34
2023-01-06T21:24:50.703Z,98344.97
2023-01-06T21:27:18.484Z,98346.28
2023-01-06T21:29:45.979Z,98347.13
2023-01-06T21:32:13.684Z,98335.88
2023-01-06T21:34:41.080Z,98347.69
2023-01-06T21:37:08.678Z,98350.03
2023-01-06T21:39:36.160Z,98355.25
2023-01-06T21:42:22.594Z,98358.84
2023-01-06T21:44:49.899Z,98363.44
2023-01-06T21:47:17.603Z,98361.94
2023-01-06T21:49:45.786Z,98366.13
2023-01-06T21:52:15.713Z,98358.25
2023-01-06T21:54:44.841Z,98352.66
2023-01-06T21:57:13.264Z,98361.22
2023-01-06T21:59:40.609Z,98359.16
2023-01-06T22:02:09.754Z,98358.41
2023-01-06T22:04:37.237Z,98359.00
2023-01-06T22:07:09.395Z,98359.91
2023-01-06T22:09:40.520Z,98365.66
2023-01-06T22:12:13.104Z,98362.59
2023-01-06T22:14:41.022Z,98360.06
2023-01-06T22:17:09.817Z,98367.84
2023-01-06T22:19:39.051Z,98370.28
2023-01-06T22:22:07.574Z,98376.59
2023-01-06T22:24:36.384Z,98366.66
2023-01-06T22:27:04.078Z,98367.44
2023-01-06T22:29:31.379Z,98367.09
2023-01-06T22:32:06.621Z,98371.53
2023-01-06T22:34:34.001Z,98379.94
2023-01-06T22:37:01.668Z,98369.53
2023-01-06T22:39:29.038Z,98376.59
2023-01-06T22:41:56.670Z,98379.19
2023-01-06T22:44:23.987Z,98383.63
2023-01-06T22:46:51.600Z,98379.53
2023-01-06T22:49:18.926Z,98377.13
2023-01-06T22:51:46.619Z,98373.75
2023-01-06T22:54:13.939Z,98384.94
2023-01-06T22:56:42.039Z,98388.69
2023-01-06T22:59:10.033Z,98385.50
2023-01-06T23:01:37.747Z,98397.16
2023-01-06T23:04:05.332Z,98399.09
2023-01-06T23:06:34.184Z,98397.34
2023-01-06T23:09:01.490Z,98397.44
2023-01-06T23:11:29.936Z,98394.41
2023-01-06T23:13:58.939Z,98403.16
2023-01-06T23:16:29.057Z,98405.88
2023-01-06T23:18:56.458Z,98408.69
2023-01-06T23:21:26.984Z,98403.63
2023-01-06T23:23:54.808Z,98399.84
2023-01-06T23:26:34.022Z,98400.03
2023-01-06T23:29:01.960Z,98407.00
2023-01-06T23:31:35.838Z,98421.63
2023-01-06T23:34:08.041Z,98415.16
2023-01-06T23:36:37.234Z,98416.69
2023-01-06T23:39:07.832Z,98406.09
2023-01-06T23:41:37.744Z,98413.47
2023-01-06T23:44:06.473Z,98417.09
2023-01-06T23:46:40.014Z,98407.00
2023-01-06T23:49:10.083Z,98414.06
2023-01-06T23:51:38.089Z,98420.94
2023-01-06T23:54:07.176Z,98422.47
2023-01-06T23:56:37.266Z,98414.72
2023-01-06T23:59:07.581Z,98417.69
